createdAt,value
2018-12-05T00:00:28.285Z,58.42
2018-12-05T00:01:30.748Z,58.34
2018-12-05T00:02:33.296Z,58.06
2018-12-05T00:03:35.773Z,58.09
2018-12-05T00:04:38.248Z,58.74
2018-12-05T00:05:40.743Z,58.51
2018-12-05T00:06:43.255Z,58.87
2018-12-05T00:07:45.756Z,59.11
2018-12-05T00:08:50.258Z,58.93
2018-12-05T00:09:52.757Z,59.15
2018-12-05T00:10:55.250Z,59.54
2018-12-05T00:11:57.779Z,59.13
2018-12-05T00:13:00.252Z,58.97
2018-12-05T00:14:02.835Z,59.55
2018-12-05T00:15:05.569Z,59.05
2018-12-05T00:16:08.062Z,58.87
2018-12-05T00:17:10.550Z,59.51
2018-12-05T00:18:13.032Z,59.55
2018-12-05T00:19:15.642Z,59.03
2018-12-05T00:20:18.195Z,59.08
2018-12-05T00:21:20.705Z,59.24
2018-12-05T00:22:23.186Z,59.93
2018-12-05T00:23:25.774Z,59.71
2018-12-05T00:24:28.443Z,59.30
2018-12-05T00:25:30.973Z,59.86
2018-12-05T00:26:33.438Z,59.77
2018-12-05T00:27:35.904Z,59.79
2018-12-05T00:28:38.387Z,60.54
2018-12-05T00:29:40.864Z,60.44
2018-12-05T00:30:43.344Z,60.75
2018-12-05T00:31:45.825Z,60.87
2018-12-05T00:32:48.313Z,60.90
2018-12-05T00:33:52.167Z,60.65
2018-12-05T00:34:54.664Z,60.99
2018-12-05T00:35:57.162Z,60.31
2018-12-05T00:36:59.643Z,60.39
2018-12-05T00:38:02.146Z,60.69
2018-12-05T00:39:07.378Z,61.15
2018-12-05T00:40:09.949Z,61.15
2018-12-05T00:41:12.607Z,60.50
2018-12-05T00:42:15.073Z,60.38
2018-12-05T00:43:17.568Z,60.37
2018-12-05T00:44:20.052Z,60.64
2018-12-05T00:45:22.532Z,60.85
2018-12-05T00:46:25.030Z,61.13
2018-12-05T00:47:27.515Z,60.58
2018-12-05T00:48:29.987Z,61.04
2018-12-05T00:49:32.471Z,61.27
2018-12-05T00:50:35.007Z,61.37
2018-12-05T00:51:37.518Z,61.43
2018-12-05T00:52:40.017Z,60.92
2018-12-05T00:53:42.532Z,60.89
2018-12-05T00:54:45.957Z,61.48
2018-12-05T00:55:48.645Z,61.03
2018-12-05T00:56:51.633Z,61.63
2018-12-05T00:57:54.111Z,61.56
2018-12-05T00:58:56.595Z,60.87
2018-12-05T00:59:59.075Z,61.59
2018-12-05T01:01:01.576Z,61.12
2018-12-05T01:02:04.313Z,61.55
2018-12-05T01:03:06.776Z,61.06
2018-12-05T01:04:09.259Z,61.53
2018-12-05T01:05:11.721Z,60.88
2018-12-05T01:06:14.300Z,60.78
2018-12-05T01:07:16.775Z,60.79
2018-12-05T01:08:19.265Z,60.54
2018-12-05T01:09:21.798Z,60.60
2018-12-05T01:10:24.280Z,60.60
2018-12-05T01:11:26.835Z,60.28
2018-12-05T01:12:29.297Z,60.80
2018-12-05T01:13:31.819Z,60.19
2018-12-05T01:14:34.313Z,60.18
2018-12-05T01:15:36.818Z,60.08
2018-12-05T01:16:39.319Z,60.35
2018-12-05T01:17:41.780Z,60.32
2018-12-05T01:18:44.260Z,60.42
2018-12-05T01:19:46.753Z,60.28
2018-12-05T01:20:49.290Z,60.30
2018-12-05T01:21:51.804Z,60.26
2018-12-05T01:22:54.277Z,59.71
2018-12-05T01:23:56.738Z,60.50
2018-12-05T01:24:59.319Z,60.00
2018-12-05T01:26:01.854Z,60.27
2018-12-05T01:27:04.344Z,60.68
2018-12-05T01:28:06.904Z,60.27
2018-12-05T01:29:09.396Z,60.60
2018-12-05T01:30:12.018Z,60.04
2018-12-05T01:31:14.577Z,60.65
2018-12-05T01:32:17.112Z,60.30
2018-12-05T01:33:19.591Z,60.80
2018-12-05T01:34:22.094Z,60.90
2018-12-05T01:35:24.594Z,60.16
2018-12-05T01:36:27.111Z,60.67
2018-12-05T01:37:29.596Z,60.92
2018-12-05T01:38:32.083Z,60.92
2018-12-05T01:39:34.559Z,60.35
2018-12-05T01:40:37.053Z,60.94
2018-12-05T01:41:39.569Z,61.13
2018-12-05T01:42:42.096Z,60.54
2018-12-05T01:43:47.592Z,60.88
2018-12-05T01:44:54.055Z,60.32
2018-12-05T01:45:56.547Z,60.83
2018-12-05T01:46:59.045Z,61.51
2018-12-05T01:48:01.603Z,62.00
2018-12-05T01:49:04.230Z,61.27
2018-12-05T01:50:06.855Z,62.11
2018-12-05T01:51:09.350Z,61.20
2018-12-05T01:52:11.877Z,61.78
2018-12-05T01:53:14.369Z,62.12
2018-12-05T01:54:16.894Z,61.65
2018-12-05T01:55:19.406Z,61.91
2018-12-05T01:56:22.000Z,62.19
2018-12-05T01:57:24.467Z,62.27
2018-12-05T01:58:26.981Z,62.72
2018-12-05T01:59:29.468Z,62.13
2018-12-05T02:00:32.094Z,62.45
2018-12-05T02:01:34.605Z,62.59
2018-12-05T02:02:37.108Z,62.39
2018-12-05T02:03:39.831Z,62.11
2018-12-05T02:04:42.321Z,62.40
2018-12-05T02:05:44.802Z,61.83
2018-12-05T02:06:47.290Z,62.08
2018-12-05T02:07:49.765Z,61.97
2018-12-05T02:08:52.313Z,61.59
2018-12-05T02:09:54.847Z,61.48
2018-12-05T02:10:57.383Z,61.37
2018-12-05T02:11:59.881Z,61.29
2018-12-05T02:13:02.380Z,61.28
2018-12-05T02:14:05.077Z,61.66
2018-12-05T02:15:07.619Z,61.85
2018-12-05T02:16:10.114Z,61.31
2018-12-05T02:17:12.695Z,61.54
2018-12-05T02:18:15.193Z,61.15
2018-12-05T02:19:17.703Z,61.56
2018-12-05T02:20:20.164Z,61.56
2018-12-05T02:21:22.639Z,61.64
2018-12-05T02:22:25.131Z,61.05
2018-12-05T02:23:27.657Z,61.36
2018-12-05T02:24:30.187Z,61.03
2018-12-05T02:25:32.644Z,60.75
2018-12-05T02:26:35.131Z,61.10
2018-12-05T02:27:37.615Z,61.22
2018-12-05T02:28:40.098Z,61.36
2018-12-05T02:29:48.281Z,61.33
2018-12-05T02:30:50.763Z,61.82
2018-12-05T02:31:53.284Z,61.28
2018-12-05T02:32:55.796Z,61.56
2018-12-05T02:33:58.292Z,61.37
2018-12-05T02:35:00.809Z,62.02
2018-12-05T02:36:03.282Z,61.31
2018-12-05T02:37:05.775Z,61.39
2018-12-05T02:38:08.259Z,61.45
2018-12-05T02:39:10.767Z,61.11
2018-12-05T02:40:13.411Z,61.01
2018-12-05T02:41:15.954Z,61.25
2018-12-05T02:42:18.436Z,61.56
2018-12-05T02:43:20.930Z,61.71
2018-12-05T02:44:23.413Z,61.20
2018-12-05T02:45:26.014Z,61.32
2018-12-05T02:46:28.511Z,62.36
2018-12-05T02:47:30.991Z,62.31
2018-12-05T02:48:34.336Z,62.27
2018-12-05T02:49:36.823Z,62.37
2018-12-05T02:50:39.323Z,62.28
2018-12-05T02:51:41.865Z,62.68
2018-12-05T02:52:44.432Z,63.10
2018-12-05T02:53:46.937Z,62.98
2018-12-05T02:54:49.426Z,62.71
2018-12-05T02:55:51.937Z,62.88
2018-12-05T02:56:54.414Z,62.50
2018-12-05T02:57:56.891Z,62.49
2018-12-05T02:58:59.357Z,62.70
2018-12-05T03:00:01.836Z,63.40
2018-12-05T03:01:04.340Z,62.51
2018-12-05T03:02:06.835Z,63.00
2018-12-05T03:03:09.300Z,62.38
2018-12-05T03:04:11.765Z,62.97
2018-12-05T03:05:14.333Z,62.24
2018-12-05T03:06:16.833Z,62.79
2018-12-05T03:07:19.365Z,62.62
2018-12-05T03:08:21.836Z,62.18
2018-12-05T03:09:24.347Z,62.00
2018-12-05T03:10:26.835Z,62.47
2018-12-05T03:11:29.342Z,61.72
2018-12-05T03:12:31.881Z,62.13
2018-12-05T03:13:34.396Z,62.16
2018-12-05T03:14:36.868Z,62.36
2018-12-05T03:15:39.367Z,61.81
2018-12-05T03:16:41.881Z,62.33
2018-12-05T03:17:44.348Z,61.83
2018-12-05T03:18:46.857Z,62.24
2018-12-05T03:19:49.321Z,61.84
2018-12-05T03:20:51.813Z,61.69
2018-12-05T03:21:54.311Z,62.28
2018-12-05T03:22:56.791Z,61.93
2018-12-05T03:23:59.267Z,62.67
2018-12-05T03:25:01.820Z,62.56
2018-12-05T03:26:04.364Z,62.34
2018-12-05T03:27:06.885Z,61.97
2018-12-05T03:28:09.419Z,62.01
2018-12-05T03:29:11.896Z,62.31
2018-12-05T03:30:14.384Z,61.80
2018-12-05T03:31:16.883Z,62.69
2018-12-05T03:32:19.460Z,61.97
2018-12-05T03:33:21.937Z,62.20
2018-12-05T03:34:24.419Z,61.89
2018-12-05T03:35:32.433Z,62.25
2018-12-05T03:36:34.930Z,62.14
2018-12-05T03:37:37.428Z,61.54
2018-12-05T03:38:39.926Z,61.78
2018-12-05T03:39:42.396Z,62.04
2018-12-05T03:40:44.879Z,62.01
2018-12-05T03:41:47.362Z,61.66
2018-12-05T03:42:49.877Z,61.44
2018-12-05T03:43:52.344Z,62.34
2018-12-05T03:44:54.800Z,62.32
2018-12-05T03:45:57.264Z,62.63
2018-12-05T03:46:59.761Z,62.88
2018-12-05T03:48:02.262Z,63.05
2018-12-05T03:49:04.926Z,63.01
2018-12-05T03:50:07.583Z,62.78
2018-12-05T03:51:10.075Z,62.78
2018-12-05T03:52:12.537Z,62.44
2018-12-05T03:53:15.049Z,63.26
2018-12-05T03:54:17.509Z,62.86
2018-12-05T03:55:20.220Z,62.92
2018-12-05T03:56:22.887Z,62.43
2018-12-05T03:57:25.447Z,62.58
2018-12-05T03:58:27.924Z,63.03
2018-12-05T03:59:30.416Z,62.98
2018-12-05T04:00:32.991Z,62.21
2018-12-05T04:01:35.491Z,62.69
2018-12-05T04:02:38.016Z,62.60
2018-12-05T04:03:40.493Z,62.18
2018-12-05T04:04:42.998Z,62.54
2018-12-05T04:05:45.490Z,61.95
2018-12-05T04:06:47.970Z,62.93
2018-12-05T04:07:50.452Z,62.05
2018-12-05T04:08:52.977Z,62.70
2018-12-05T04:09:55.458Z,62.21
2018-12-05T04:10:57.943Z,62.31
2018-12-05T04:12:00.459Z,62.69
2018-12-05T04:13:02.961Z,62.52
2018-12-05T04:14:05.554Z,62.06
2018-12-05T04:15:08.183Z,62.04
2018-12-05T04:16:10.667Z,61.85
2018-12-05T04:17:13.166Z,62.17
2018-12-05T04:18:15.639Z,61.97
2018-12-05T04:19:18.151Z,62.61
2018-12-05T04:20:20.651Z,61.82
2018-12-05T04:21:23.155Z,62.48
2018-12-05T04:22:25.616Z,62.90
2018-12-05T04:23:28.121Z,62.72
2018-12-05T04:24:30.718Z,62.37
2018-12-05T04:25:33.221Z,62.91
2018-12-05T04:26:35.699Z,62.23
2018-12-05T04:27:38.179Z,62.31
2018-12-05T04:28:40.660Z,62.09
2018-12-05T04:29:43.177Z,62.29
2018-12-05T04:30:45.654Z,62.62
2018-12-05T04:31:48.128Z,62.84
2018-12-05T04:32:50.586Z,62.95
2018-12-05T04:33:53.048Z,62.75
2018-12-05T04:34:55.561Z,62.18
2018-12-05T04:35:58.022Z,62.92
2018-12-05T04:37:00.503Z,62.62
2018-12-05T04:38:02.965Z,62.34
2018-12-05T04:39:08.282Z,62.46
2018-12-05T04:40:10.769Z,63.07
2018-12-05T04:41:13.246Z,62.80
2018-12-05T04:42:15.723Z,62.70
2018-12-05T04:43:18.230Z,62.09
2018-12-05T04:44:20.733Z,62.56
2018-12-05T04:45:23.251Z,62.67
2018-12-05T04:46:25.711Z,63.18
2018-12-05T04:47:28.193Z,62.60
2018-12-05T04:48:30.731Z,62.73
2018-12-05T04:49:33.208Z,62.90
2018-12-05T04:50:35.726Z,62.81
2018-12-05T04:51:38.228Z,62.30
2018-12-05T04:52:40.711Z,62.74
2018-12-05T04:53:43.202Z,61.93
2018-12-05T04:54:45.664Z,62.10
2018-12-05T04:55:48.181Z,62.02
2018-12-05T04:56:50.755Z,62.80
2018-12-05T04:57:53.235Z,62.27
2018-12-05T04:58:56.068Z,62.11
2018-12-05T04:59:58.570Z,61.67
2018-12-05T05:01:03.811Z,62.10
2018-12-05T05:02:06.888Z,62.18
2018-12-05T05:03:09.375Z,62.13
2018-12-05T05:04:12.095Z,62.64
2018-12-05T05:05:14.558Z,62.62
2018-12-05T05:06:17.065Z,62.03
2018-12-05T05:07:19.555Z,62.18
2018-12-05T05:08:22.024Z,62.29
2018-12-05T05:09:24.487Z,62.41
2018-12-05T05:10:26.967Z,62.26
2018-12-05T05:11:29.476Z,62.35
2018-12-05T05:12:31.973Z,62.45
2018-12-05T05:13:34.451Z,62.93
2018-12-05T05:14:36.930Z,62.70
2018-12-05T05:15:39.710Z,62.45
2018-12-05T05:16:42.225Z,62.37
2018-12-05T05:17:44.743Z,62.76
2018-12-05T05:18:47.375Z,62.73
2018-12-05T05:19:49.929Z,62.32
2018-12-05T05:20:52.443Z,62.44
2018-12-05T05:21:54.994Z,63.00
2018-12-05T05:22:57.481Z,62.62
2018-12-05T05:23:59.943Z,62.49
2018-12-05T05:25:02.433Z,63.10
2018-12-05T05:26:04.897Z,63.06
2018-12-05T05:27:07.466Z,63.24
2018-12-05T05:28:10.078Z,63.51
2018-12-05T05:29:12.552Z,64.02
2018-12-05T05:30:15.046Z,63.00
2018-12-05T05:31:17.543Z,63.03
2018-12-05T05:32:20.060Z,63.25
2018-12-05T05:33:22.553Z,63.92
2018-12-05T05:34:25.146Z,63.84
2018-12-05T05:35:27.760Z,62.79
2018-12-05T05:36:30.253Z,63.05
2018-12-05T05:37:32.802Z,62.84
2018-12-05T05:38:35.286Z,63.72
2018-12-05T05:39:37.767Z,63.02
2018-12-05T05:40:40.250Z,62.91
2018-12-05T05:41:42.736Z,62.83
2018-12-05T05:42:45.259Z,62.65
2018-12-05T05:43:47.740Z,62.57
2018-12-05T05:44:50.266Z,62.68
2018-12-05T05:45:52.733Z,61.91
2018-12-05T05:46:55.195Z,62.14
2018-12-05T05:47:57.677Z,61.50
2018-12-05T05:49:00.151Z,61.72
2018-12-05T05:50:02.689Z,61.77
2018-12-05T05:51:05.254Z,62.28
2018-12-05T05:52:07.746Z,62.00
2018-12-05T05:53:10.266Z,61.89
2018-12-05T05:54:12.739Z,62.23
2018-12-05T05:55:15.215Z,62.31
2018-12-05T05:56:17.722Z,61.60
2018-12-05T05:57:20.201Z,62.18
2018-12-05T05:58:22.717Z,61.73
2018-12-05T05:59:25.199Z,62.01
2018-12-05T06:00:27.849Z,61.75
2018-12-05T06:01:30.387Z,61.88
2018-12-05T06:02:32.949Z,62.06
2018-12-05T06:03:35.494Z,61.65
2018-12-05T06:04:38.090Z,61.54
2018-12-05T06:05:40.668Z,61.89
2018-12-05T06:06:43.302Z,61.73
2018-12-05T06:07:45.790Z,61.56
2018-12-05T06:08:48.316Z,60.27
2018-12-05T06:09:50.998Z,60.51
2018-12-05T06:10:53.495Z,60.05
2018-12-05T06:11:56.070Z,61.29
2018-12-05T06:12:58.560Z,60.53
2018-12-05T06:14:01.080Z,61.13
2018-12-05T06:15:04.280Z,61.05
2018-12-05T06:16:06.755Z,61.04
2018-12-05T06:17:09.231Z,61.23
2018-12-05T06:18:11.711Z,61.16
2018-12-05T06:19:14.213Z,61.69
2018-12-05T06:20:16.683Z,61.62
2018-12-05T06:21:19.160Z,62.10
2018-12-05T06:22:21.636Z,61.41
2018-12-05T06:23:24.119Z,62.40
2018-12-05T06:24:26.615Z,61.91
2018-12-05T06:25:29.096Z,62.24
2018-12-05T06:26:31.579Z,61.70
2018-12-05T06:27:34.076Z,61.57
2018-12-05T06:28:36.556Z,62.14
2018-12-05T06:29:39.061Z,61.52
2018-12-05T06:30:41.546Z,62.11
2018-12-05T06:31:44.022Z,61.94
2018-12-05T06:32:46.505Z,62.00
2018-12-05T06:33:48.964Z,61.81
2018-12-05T06:34:51.627Z,61.48
2018-12-05T06:35:54.287Z,61.10
2018-12-05T06:36:56.833Z,61.17
2018-12-05T06:37:59.345Z,61.23
2018-12-05T06:39:01.813Z,61.38
2018-12-05T06:40:05.747Z,61.18
2018-12-05T06:41:08.212Z,60.80
2018-12-05T06:42:10.690Z,60.92
2018-12-05T06:43:13.193Z,60.82
2018-12-05T06:44:15.656Z,61.03
2018-12-05T06:45:18.174Z,61.12
2018-12-05T06:46:20.679Z,60.27
2018-12-05T06:47:23.177Z,56.47
2018-12-05T06:48:25.672Z,55.53
2018-12-05T06:49:28.165Z,56.12
2018-12-05T06:50:30.743Z,55.05
2018-12-05T06:51:33.226Z,53.96
2018-12-05T06:52:35.719Z,54.80
2018-12-05T06:53:38.220Z,54.31
2018-12-05T06:54:40.713Z,54.83
2018-12-05T06:55:43.215Z,55.41
2018-12-05T06:56:45.721Z,55.15
2018-12-05T06:57:48.212Z,55.47
2018-12-05T06:58:50.801Z,54.83
2018-12-05T06:59:53.335Z,53.76
2018-12-05T07:00:55.832Z,53.09
2018-12-05T07:01:58.333Z,54.25
2018-12-05T07:03:00.811Z,53.70
2018-12-05T07:04:03.412Z,54.07
2018-12-05T07:05:06.242Z,53.76
2018-12-05T07:06:08.750Z,53.70
2018-12-05T07:07:11.249Z,53.32
2018-12-05T07:08:13.727Z,53.07
2018-12-05T07:09:16.210Z,53.06
2018-12-05T07:10:18.687Z,53.06
2018-12-05T07:11:21.209Z,52.84
2018-12-05T07:12:23.701Z,53.42
2018-12-05T07:13:26.207Z,53.03
2018-12-05T07:14:28.702Z,53.19
2018-12-05T07:15:31.554Z,52.91
2018-12-05T07:16:34.044Z,53.29
2018-12-05T07:17:41.239Z,53.94
2018-12-05T07:18:43.719Z,54.75
2018-12-05T07:19:46.210Z,54.54
2018-12-05T07:20:48.722Z,54.89
2018-12-05T07:21:51.217Z,54.42
2018-12-05T07:22:53.696Z,54.32
2018-12-05T07:23:56.175Z,55.12
2018-12-05T07:24:58.656Z,54.96
2018-12-05T07:26:01.136Z,54.68
2018-12-05T07:27:03.615Z,54.75
2018-12-05T07:28:06.091Z,55.05
2018-12-05T07:29:08.563Z,55.00
2018-12-05T07:30:11.021Z,55.47
2018-12-05T07:31:13.503Z,55.16
2018-12-05T07:32:15.994Z,54.96
2018-12-05T07:33:18.466Z,55.16
2018-12-05T07:34:20.959Z,55.16
2018-12-05T07:35:23.425Z,55.22
2018-12-05T07:36:25.917Z,55.79
2018-12-05T07:37:28.445Z,56.03
2018-12-05T07:38:31.157Z,55.37
2018-12-05T07:39:33.647Z,55.86
2018-12-05T07:40:36.127Z,55.62
2018-12-05T07:41:38.623Z,56.03
2018-12-05T07:42:41.105Z,55.85
2018-12-05T07:43:43.581Z,56.08
2018-12-05T07:44:46.059Z,56.37
2018-12-05T07:45:48.553Z,56.11
2018-12-05T07:46:51.039Z,56.84
2018-12-05T07:47:53.517Z,56.74
2018-12-05T07:48:55.997Z,56.48
2018-12-05T07:49:58.489Z,56.38
2018-12-05T07:51:00.986Z,57.02
2018-12-05T07:52:03.609Z,56.88
2018-12-05T07:53:06.128Z,56.89
2018-12-05T07:54:08.675Z,56.91
2018-12-05T07:55:11.159Z,57.61
2018-12-05T07:56:13.637Z,57.38
2018-12-05T07:57:16.117Z,57.40
2018-12-05T07:58:18.615Z,57.79
2018-12-05T07:59:21.105Z,57.93
2018-12-05T08:00:23.571Z,57.83
2018-12-05T08:01:26.059Z,57.92
2018-12-05T08:02:28.548Z,57.42
2018-12-05T08:03:31.090Z,57.69
2018-12-05T08:04:33.683Z,58.04
2018-12-05T08:05:36.203Z,58.15
2018-12-05T08:06:38.744Z,58.29
2018-12-05T08:07:41.323Z,58.29
2018-12-05T08:08:43.966Z,57.74
2018-12-05T08:09:46.471Z,58.23
2018-12-05T08:10:49.075Z,58.51
2018-12-05T08:11:52.080Z,58.35
2018-12-05T08:12:54.565Z,58.06
2018-12-05T08:13:57.139Z,58.71
2018-12-05T08:14:59.657Z,58.11
2018-12-05T08:16:02.143Z,58.66
2018-12-05T08:17:04.618Z,58.58
2018-12-05T08:18:07.128Z,58.17
2018-12-05T08:19:09.600Z,58.47
2018-12-05T08:20:12.148Z,59.03
2018-12-05T08:21:14.615Z,58.43
2018-12-05T08:22:17.096Z,58.96
2018-12-05T08:23:19.641Z,58.55
2018-12-05T08:24:22.104Z,58.95
2018-12-05T08:25:24.602Z,59.08
2018-12-05T08:26:27.076Z,58.70
2018-12-05T08:27:29.643Z,58.96
2018-12-05T08:28:32.251Z,58.82
2018-12-05T08:29:34.774Z,59.14
2018-12-05T08:30:37.394Z,59.14
2018-12-05T08:31:39.958Z,59.11
2018-12-05T08:32:42.469Z,59.01
2018-12-05T08:33:45.035Z,58.98
2018-12-05T08:34:47.515Z,58.85
2018-12-05T08:35:50.023Z,59.31
2018-12-05T08:36:52.507Z,59.50
2018-12-05T08:37:54.994Z,58.94
2018-12-05T08:38:57.503Z,59.29
2018-12-05T08:39:59.979Z,58.85
2018-12-05T08:41:02.468Z,59.37
2018-12-05T08:42:04.935Z,59.34
2018-12-05T08:43:07.396Z,59.58
2018-12-05T08:44:09.887Z,59.08
2018-12-05T08:45:12.468Z,59.06
2018-12-05T08:46:15.018Z,59.38
2018-12-05T08:47:17.478Z,59.17
2018-12-05T08:48:19.958Z,59.13
2018-12-05T08:49:22.465Z,59.26
2018-12-05T08:50:25.083Z,59.05
2018-12-05T08:51:27.638Z,59.74
2018-12-05T08:52:30.140Z,59.74
2018-12-05T08:53:32.619Z,59.22
2018-12-05T08:54:35.141Z,59.23
2018-12-05T08:55:37.608Z,59.75
2018-12-05T08:56:40.087Z,59.73
2018-12-05T08:57:42.561Z,59.50
2018-12-05T08:58:45.039Z,59.86
2018-12-05T08:59:47.549Z,59.27
2018-12-05T09:00:50.093Z,59.96
2018-12-05T09:01:52.587Z,59.30
2018-12-05T09:02:55.075Z,59.66
2018-12-05T09:03:57.565Z,59.73
2018-12-05T09:05:00.054Z,59.39
2018-12-05T09:06:02.538Z,59.63
2018-12-05T09:07:05.003Z,59.53
2018-12-05T09:08:07.492Z,59.48
2018-12-05T09:09:09.982Z,59.82
2018-12-05T09:10:12.491Z,59.94
2018-12-05T09:11:15.059Z,59.37
2018-12-05T09:12:17.551Z,59.91
2018-12-05T09:13:20.034Z,59.46
2018-12-05T09:14:28.631Z,59.47
2018-12-05T09:15:27.116Z,59.70
2018-12-05T09:16:29.613Z,59.50
2018-12-05T09:17:32.109Z,59.61
2018-12-05T09:18:34.607Z,59.88
2018-12-05T09:19:37.134Z,59.39
2018-12-05T09:20:39.677Z,59.50
2018-12-05T09:21:42.189Z,59.72
2018-12-05T09:22:44.686Z,59.73
2018-12-05T09:23:47.543Z,59.34
2018-12-05T09:24:50.050Z,59.39
2018-12-05T09:25:52.567Z,59.70
2018-12-05T09:26:55.078Z,59.93
2018-12-05T09:27:57.559Z,59.66
2018-12-05T09:29:00.035Z,59.95
2018-12-05T09:30:02.514Z,59.88
2018-12-05T09:31:05.000Z,59.79
2018-12-05T09:32:07.460Z,59.50
2018-12-05T09:33:09.930Z,59.86
2018-12-05T09:34:12.407Z,59.41
2018-12-05T09:35:14.929Z,59.79
2018-12-05T09:36:17.473Z,60.00
2018-12-05T09:37:19.964Z,59.44
2018-12-05T09:38:22.539Z,59.96
2018-12-05T09:39:25.000Z,60.04
2018-12-05T09:40:27.468Z,59.62
2018-12-05T09:41:29.967Z,59.71
2018-12-05T09:42:32.448Z,60.01
2018-12-05T09:43:34.912Z,59.51
2018-12-05T09:44:37.372Z,59.99
2018-12-05T09:45:39.854Z,60.20
2018-12-05T09:46:42.342Z,59.75
2018-12-05T09:47:44.823Z,59.51
2018-12-05T09:48:47.303Z,60.03
2018-12-05T09:49:50.036Z,60.21
2018-12-05T09:50:52.558Z,59.53
2018-12-05T09:51:55.112Z,59.73
2018-12-05T09:52:57.599Z,59.42
2018-12-05T09:54:00.107Z,60.05
2018-12-05T09:55:02.692Z,60.24
2018-12-05T09:56:05.220Z,60.12
2018-12-05T09:57:07.751Z,60.24
2018-12-05T09:58:10.263Z,60.10
2018-12-05T09:59:12.747Z,59.48
2018-12-05T10:00:15.248Z,60.11
2018-12-05T10:01:18.731Z,59.61
2018-12-05T10:02:21.212Z,59.77
2018-12-05T10:03:23.841Z,59.71
2018-12-05T10:04:26.346Z,59.77
2018-12-05T10:05:28.838Z,59.94
2018-12-05T10:06:31.319Z,59.43
2018-12-05T10:07:33.815Z,60.28
2018-12-05T10:08:36.297Z,60.42
2018-12-05T10:09:38.793Z,60.25
2018-12-05T10:10:41.304Z,59.57
2018-12-05T10:11:43.809Z,59.99
2018-12-05T10:12:46.329Z,59.82
2018-12-05T10:13:48.861Z,60.14
2018-12-05T10:14:51.379Z,60.23
2018-12-05T10:15:53.846Z,60.11
2018-12-05T10:16:56.321Z,59.95
2018-12-05T10:17:58.801Z,60.16
2018-12-05T10:19:01.282Z,59.93
2018-12-05T10:20:04.023Z,60.18
2018-12-05T10:21:06.507Z,59.46
2018-12-05T10:22:09.003Z,59.89
2018-12-05T10:23:11.504Z,60.27
2018-12-05T10:24:14.005Z,60.15
2018-12-05T10:25:16.591Z,60.07
2018-12-05T10:26:19.137Z,60.05
2018-12-05T10:27:21.648Z,59.53
2018-12-05T10:28:24.141Z,60.25
2018-12-05T10:29:26.640Z,59.73
2018-12-05T10:30:29.199Z,60.22
2018-12-05T10:31:31.681Z,59.51
2018-12-05T10:32:34.169Z,60.14
2018-12-05T10:33:36.678Z,60.27
2018-12-05T10:34:39.141Z,59.81
2018-12-05T10:35:41.639Z,60.03
2018-12-05T10:36:44.119Z,59.62
2018-12-05T10:37:46.594Z,59.54
2018-12-05T10:38:49.113Z,59.87
2018-12-05T10:39:51.649Z,60.28
2018-12-05T10:40:54.117Z,59.63
2018-12-05T10:41:56.572Z,60.07
2018-12-05T10:42:59.136Z,59.58
2018-12-05T10:44:01.650Z,60.20
2018-12-05T10:45:04.973Z,59.91
2018-12-05T10:46:07.526Z,59.47
2018-12-05T10:47:09.992Z,59.82
2018-12-05T10:48:12.544Z,60.12
2018-12-05T10:49:15.175Z,60.33
2018-12-05T10:50:17.708Z,59.87
2018-12-05T10:51:20.190Z,59.52
2018-12-05T10:52:22.729Z,59.60
2018-12-05T10:53:25.222Z,59.59
2018-12-05T10:54:27.787Z,60.16
2018-12-05T10:55:30.253Z,59.61
2018-12-05T10:56:32.759Z,59.64
2018-12-05T10:57:35.238Z,59.93
2018-12-05T10:58:37.738Z,59.47
2018-12-05T10:59:40.305Z,60.16
2018-12-05T11:00:48.583Z,60.27
2018-12-05T11:01:57.459Z,59.57
2018-12-05T11:03:05.498Z,59.94
2018-12-05T11:04:13.655Z,59.85
2018-12-05T11:05:27.022Z,60.14
2018-12-05T11:06:35.184Z,60.14
2018-12-05T11:07:43.283Z,60.13
2018-12-05T11:08:51.511Z,60.20
2018-12-05T11:09:59.731Z,59.89
2018-12-05T11:11:07.820Z,59.58
2018-12-05T11:12:15.874Z,60.12
2018-12-05T11:13:24.089Z,60.06
2018-12-05T11:16:10.347Z,60.08
2018-12-05T11:17:18.382Z,60.05
2018-12-05T11:18:26.529Z,60.04
2018-12-05T11:19:34.639Z,59.80
2018-12-05T11:20:42.773Z,59.68
2018-12-05T11:21:50.991Z,60.20
2018-12-05T11:22:59.182Z,59.57
2018-12-05T11:24:05.127Z,60.20
2018-12-05T11:25:07.975Z,60.15
2018-12-05T11:26:12.431Z,59.63
2018-12-05T11:27:15.015Z,59.59
2018-12-05T11:28:17.491Z,59.61
2018-12-05T11:29:19.968Z,59.98
2018-12-05T11:30:22.475Z,60.25
2018-12-05T11:31:25.031Z,59.49
2018-12-05T11:32:27.507Z,60.19
2018-12-05T11:33:29.998Z,59.80
2018-12-05T11:34:32.479Z,60.25
2018-12-05T11:35:36.226Z,59.60
2018-12-05T11:36:39.074Z,59.56
2018-12-05T11:37:41.637Z,60.04
2018-12-05T11:38:44.118Z,59.92
2018-12-05T11:39:46.605Z,60.01
2018-12-05T11:40:49.136Z,60.27
2018-12-05T11:41:51.750Z,60.30
2018-12-05T11:42:54.238Z,60.16
2018-12-05T11:43:56.745Z,59.56
2018-12-05T11:44:59.297Z,59.84
2018-12-05T11:46:01.786Z,59.94
2018-12-05T11:47:04.312Z,60.14
2018-12-05T11:48:06.796Z,59.79
2018-12-05T11:49:09.294Z,59.71
2018-12-05T11:50:11.787Z,60.12
2018-12-05T11:51:14.339Z,59.41
2018-12-05T11:53:18.608Z,60.20
2018-12-05T11:54:21.081Z,59.94
2018-12-05T11:55:23.551Z,60.03
2018-12-05T11:56:26.040Z,59.51
2018-12-05T11:57:28.517Z,59.79
2018-12-05T11:58:31.050Z,59.54
2018-12-05T11:59:33.516Z,60.07
2018-12-05T12:00:36.139Z,59.84
2018-12-05T12:01:38.642Z,59.51
2018-12-05T12:02:41.142Z,60.00
2018-12-05T12:03:43.625Z,59.37
2018-12-05T12:04:46.122Z,60.21
2018-12-05T12:05:48.618Z,59.57
2018-12-05T12:06:51.205Z,59.91
2018-12-05T12:07:53.797Z,60.04
2018-12-05T12:08:56.542Z,59.59
2018-12-05T12:09:59.045Z,60.10
2018-12-05T12:11:03.481Z,59.46
2018-12-05T12:12:08.320Z,59.32
2018-12-05T12:13:10.791Z,59.33
2018-12-05T12:14:13.294Z,59.71
2018-12-05T12:15:15.995Z,59.68
2018-12-05T12:16:18.930Z,59.39
2018-12-05T12:17:21.435Z,59.74
2018-12-05T12:18:23.987Z,59.77
2018-12-05T12:19:26.471Z,60.08
2018-12-05T12:20:29.073Z,59.98
2018-12-05T12:21:31.557Z,60.06
2018-12-05T12:22:34.105Z,59.50
2018-12-05T12:23:36.581Z,60.17
2018-12-05T12:24:39.135Z,59.99
2018-12-05T12:25:41.706Z,59.46
2018-12-05T12:26:44.276Z,59.42
2018-12-05T12:27:46.826Z,59.35
2018-12-05T12:28:49.310Z,60.03
2018-12-05T12:29:51.790Z,59.94
2018-12-05T12:30:54.346Z,59.67
2018-12-05T12:31:56.834Z,59.48
2018-12-05T12:32:59.378Z,59.46
2018-12-05T12:34:01.958Z,59.26
2018-12-05T12:35:04.589Z,60.06
2018-12-05T12:36:07.081Z,59.93
2018-12-05T12:37:09.573Z,59.33
2018-12-05T12:38:12.060Z,59.33
2018-12-05T12:39:14.543Z,59.79
2018-12-05T12:40:17.021Z,59.61
2018-12-05T12:41:19.501Z,59.25
2018-12-05T12:42:21.981Z,59.51
2018-12-05T12:43:24.479Z,59.21
2018-12-05T12:44:26.937Z,59.13
2018-12-05T12:45:29.396Z,59.88
2018-12-05T12:46:31.893Z,59.68
2018-12-05T12:47:34.371Z,59.56
2018-12-05T12:48:36.856Z,59.54
2018-12-05T12:49:39.317Z,59.83
2018-12-05T12:50:41.772Z,59.66
2018-12-05T12:51:44.235Z,59.25
2018-12-05T12:52:46.719Z,59.87
2018-12-05T12:53:49.200Z,59.24
2018-12-05T12:54:51.753Z,59.21
2018-12-05T12:55:54.395Z,59.33
2018-12-05T12:56:56.875Z,59.21
2018-12-05T12:57:59.430Z,59.13
2018-12-05T12:59:01.941Z,59.09
2018-12-05T13:00:06.284Z,59.09
2018-12-05T13:01:08.759Z,59.89
2018-12-05T13:02:11.261Z,59.74
2018-12-05T13:03:13.753Z,59.78
2018-12-05T13:04:16.273Z,59.20
2018-12-05T13:05:18.791Z,59.85
2018-12-05T13:06:21.269Z,59.12
2018-12-05T13:07:23.766Z,59.82
2018-12-05T13:08:26.247Z,59.55
2018-12-05T13:09:28.747Z,59.23
2018-12-05T13:10:31.227Z,59.22
2018-12-05T13:11:33.711Z,59.22
2018-12-05T13:12:36.209Z,59.15
2018-12-05T13:13:38.704Z,58.96
2018-12-05T13:14:41.206Z,59.13
2018-12-05T13:15:43.668Z,59.50
2018-12-05T13:16:46.128Z,59.55
2018-12-05T13:17:48.607Z,59.27
2018-12-05T13:18:51.118Z,59.60
2018-12-05T13:19:53.933Z,59.77
2018-12-05T13:20:56.450Z,59.64
2018-12-05T13:21:58.949Z,59.50
2018-12-05T13:23:01.441Z,59.46
2018-12-05T13:24:03.908Z,59.21
2018-12-05T13:25:06.618Z,59.11
2018-12-05T13:26:09.090Z,59.30
2018-12-05T13:27:11.590Z,59.78
2018-12-05T13:28:14.061Z,59.17
2018-12-05T13:29:16.551Z,59.12
2018-12-05T13:30:19.405Z,59.45